Time;durP1;ratioP1;P1;durP2;ratioP2;P2;SDS_P1;SDS_P2;PMS_P1;PMS_P2;Temp;Humidity;BMP_temperature;BMP_pressure;BME280_temperature;BME280_humidity;BME280_pressure;Samples;Min_cycle;Max_cycle;Signal;HPM_P1;HPM_P2
2021/11/26 00:00:10;;;;;;;47.30;20.52;;;;;;;1.43;85.42;99723.16;20900653;28;20140;-68
2021/11/26 00:10:11;;;;;;;40.05;19.30;;;;;;;1.42;85.56;99703.38;20900168;28;20190;-69
2021/11/26 00:20:13;;;;;;;41.78;20.08;;;;;;;1.39;85.37;99700.75;20899699;28;20045;-68
2021/11/26 00:30:14;;;;;;;36.30;18.15;;;;;;;1.37;85.89;99674.09;20900203;28;20045;-67
2021/11/26 00:40:16;;;;;;;36.15;17.80;;;;;;;1.37;85.67;99658.63;20899053;28;20045;-68
2021/11/26 00:50:18;;;;;;;39.03;19.88;;;;;;;1.37;86.11;99649.16;20900542;28;20098;-67
2021/11/26 01:00:19;;;;;;;38.85;18.25;;;;;;;1.48;85.58;99641.53;20914116;28;20083;-67
2021/11/26 01:10:23;;;;;;;40.13;18.10;;;;;;;1.50;86.12;99645.00;20914617;28;20045;-67
2021/11/26 01:20:28;;;;;;;40.67;19.10;;;;;;;1.46;86.25;99649.25;20913212;28;20525;-68
2021/11/26 01:30:36;;;;;;;38.47;18.67;;;;;;;1.59;86.27;99634.75;20911852;28;20071;-67
2021/11/26 01:40:40;;;;;;;39.03;17.90;;;;;;;1.66;85.96;99625.34;20911155;28;20072;-67
2021/11/26 01:50:44;;;;;;;35.30;17.02;;;;;;;1.66;85.77;99599.53;20911336;28;20057;-68
2021/11/26 02:00:47;;;;;;;37.53;18.65;;;;;;;1.65;85.60;99598.69;20910655;28;20107;-67
2021/11/26 02:10:49;;;;;;;35.28;17.13;;;;;;;1.42;85.63;99595.91;20908515;28;20075;-66
2021/11/26 02:20:53;;;;;;;40.15;17.92;;;;;;;1.48;85.83;99584.78;20908660;28;20161;-67
2021/11/26 02:30:55;;;;;;;;;;;;;;;1.59;85.59;99556.50;20908880;28;20045;-66
2021/11/26 02:40:56;;;;;;;33.08;16.52;;;;;;;1.61;85.42;99550.47;20906901;28;19921;-67
2021/11/26 02:50:58;;;;;;;37.95;17.83;;;;;;;1.63;85.61;99545.31;20906566;28;20603;-68
2021/11/26 03:01:00;;;;;;;32.83;16.30;;;;;;;1.62;85.69;99528.97;20905291;28;20452;-68
2021/11/26 03:11:04;;;;;;;41.70;17.77;;;;;;;1.64;85.98;99498.91;20904618;28;20140;-67
2021/11/26 03:21:05;;;;;;;39.05;18.73;;;;;;;1.59;85.74;99485.13;20902548;28;20199;-68
2021/11/26 03:31:07;;;;;;;43.10;20.00;;;;;;;1.24;86.95;99483.16;20902599;28;20060;-67
2021/11/26 03:41:09;;;;;;;44.92;20.27;;;;;;;1.00;88.07;99465.78;20903925;28;20083;-68
2021/11/26 03:51:10;;;;;;;43.95;20.85;;;;;;;1.09;88.09;99459.00;20899479;28;20106;-67
2021/11/26 04:01:12;;;;;;;49.67;23.20;;;;;;;1.22;87.54;99468.53;20900428;28;20064;-67
2021/11/26 04:11:13;;;;;;;41.88;20.17;;;;;;;1.26;87.06;99450.53;20900512;28;20139;-69
2021/11/26 04:21:15;;;;;;;49.50;21.52;;;;;;;1.31;87.10;99452.28;20900057;28;20103;-67
2021/11/26 04:31:17;;;;;;;46.15;20.80;;;;;;;1.43;87.13;99427.41;20898925;28;20395;-69
2021/11/26 04:41:18;;;;;;;48.38;22.77;;;;;;;1.42;86.37;99425.69;20899047;28;20056;-67
2021/11/26 04:51:20;;;;;;;51.03;22.35;;;;;;;1.35;86.52;99412.75;20898722;28;20061;-67
2021/11/26 05:01:21;;;;;;;43.13;21.40;;;;;;;1.37;87.10;99405.88;20898088;28;20061;-69
2021/11/26 05:11:23;;;;;;;49.97;23.67;;;;;;;1.34;86.51;99396.41;20897989;28;20044;-67
2021/11/26 05:21:25;;;;;;;50.05;22.60;;;;;;;1.42;86.73;99381.84;20896777;28;20053;-67
2021/11/26 05:31:27;;;;;;;46.38;22.55;;;;;;;1.42;86.98;99374.09;20896458;28;20105;-67
2021/11/26 05:41:33;;;;;;;52.70;23.80;;;;;;;1.43;87.05;99377.53;20904588;28;20067;-67
2021/11/26 05:51:34;;;;;;;52.55;24.45;;;;;;;1.45;87.00;99360.38;20911103;28;20045;-67
2021/11/26 06:01:36;;;;;;;48.60;24.40;;;;;;;1.46;86.95;99349.19;20909452;28;20505;-67
2021/11/26 06:11:37;;;;;;;52.45;24.08;;;;;;;1.48;88.36;99337.16;20909831;28;20056;-68
2021/11/26 06:21:39;;;;;;;49.63;22.90;;;;;;;1.50;87.65;99322.56;20908760;28;20045;-67
2021/11/26 06:31:41;;;;;;;48.30;23.45;;;;;;;1.35;89.68;99320.78;20907619;28;20090;-67
2021/11/26 06:41:43;;;;;;;51.47;23.65;;;;;;;1.39;89.90;99311.31;20907835;28;20126;-68
2021/11/26 06:51:44;;;;;;;52.42;23.27;;;;;;;1.44;90.44;99299.31;20906547;28;20070;-67
2021/11/26 07:01:46;;;;;;;50.70;24.02;;;;;;;1.46;90.22;99287.28;20904606;28;20049;-69
2021/11/26 07:11:47;;;;;;;51.22;23.88;;;;;;;1.48;89.85;99275.25;20905284;28;20045;-68
2021/11/26 07:22:09;;;;;;;49.28;22.98;;;;;;;1.51;89.92;99262.38;20904494;28;20088;-70
2021/11/26 07:32:10;;;;;;;49.20;23.77;;;;;;;1.57;89.18;99234.00;20903347;28;20087;-67
2021/11/26 07:42:13;;;;;;;56.83;25.85;;;;;;;1.69;88.98;99217.69;20903495;28;20102;-68
2021/11/26 07:52:15;;;;;;;61.88;28.45;;;;;;;1.67;88.04;99207.34;20902336;28;20539;-67
2021/11/26 08:02:16;;;;;;;59.40;26.13;;;;;;;1.51;88.47;99203.03;20889392;28;20053;-67
2021/11/26 08:12:19;;;;;;;57.20;26.58;;;;;;;1.34;88.93;99197.84;20877067;28;20098;-68
2021/11/26 08:22:20;;;;;;;63.05;27.83;;;;;;;1.38;88.77;99191.81;20874988;28;20045;-68
2021/11/26 08:32:22;;;;;;;63.53;27.95;;;;;;;1.44;87.76;99181.53;20847255;28;20080;-67
2021/11/26 08:42:24;;;;;;;62.67;27.88;;;;;;;1.15;89.74;99172.88;20872284;28;20111;-67
2021/11/26 08:52:26;;;;;;;62.70;27.38;;;;;;;1.19;89.54;99160.00;20893895;28;20491;-67
2021/11/26 09:02:28;;;;;;;66.93;29.08;;;;;;;1.60;88.29;99150.59;20891370;28;20464;-67
2021/11/26 09:12:30;;;;;;;63.22;27.45;;;;;;;1.77;87.74;99154.91;20893693;28;20364;-67
2021/11/26 09:22:32;;;;;;;64.13;29.65;;;;;;;2.22;86.29;99139.34;20907664;28;20433;-67
2021/11/26 09:32:33;;;;;;;62.65;29.02;;;;;;;2.36;84.68;99139.31;20906134;28;20052;-67
2021/11/26 09:42:36;;;;;;;60.40;28.35;;;;;;;2.89;82.38;99122.72;20903964;28;20580;-69
2021/11/26 09:52:40;;;;;;;61.55;28.50;;;;;;;2.85;82.34;99114.13;20906402;28;20052;-68
2021/11/26 10:02:53;;;;;;;61.42;28.48;;;;;;;2.87;82.21;99106.34;20904204;28;20045;-68
2021/11/26 10:13:01;;;;;;;62.30;28.20;;;;;;;3.05;81.87;99082.97;20903144;28;20043;-68
2021/11/26 10:23:18;;;;;;;60.53;28.02;;;;;;;3.03;82.49;99061.44;20902407;28;20053;-68
2021/11/26 10:33:24;;;;;;;63.50;29.00;;;;;;;3.15;82.38;99029.47;20902033;28;20482;-69
2021/11/26 10:44:14;;;;;;;68.03;29.27;;;;;;;3.01;83.00;99012.31;20901271;28;20061;-69
2021/11/26 11:04:26;;;;;;;66.25;29.83;;;;;;;3.21;81.44;98978.56;20897532;28;20049;-69
2021/11/26 11:14:28;;;;;;;63.67;28.23;;;;;;;3.30;81.75;98957.75;20897973;28;20048;-68
2021/11/26 11:24:30;;;;;;;64.68;28.88;;;;;;;3.59;80.57;98912.59;20899206;28;20140;-68
2021/11/26 11:34:31;;;;;;;58.55;26.95;;;;;;;3.68;79.22;98896.97;20895738;28;20099;-69
2021/11/26 11:44:37;;;;;;;60.13;27.15;;;;;;;3.79;78.84;98884.78;20895587;28;20141;-69
2021/11/26 11:54:42;;;;;;;58.55;27.50;;;;;;;3.80;79.58;98881.31;20895533;28;20110;-69
2021/11/26 12:04:44;;;;;;;57.80;26.70;;;;;;;4.05;79.00;98865.44;20893386;28;20571;-68
2021/11/26 12:14:54;;;;;;;60.80;27.75;;;;;;;3.94;78.31;98846.59;20892896;28;20053;-68
2021/11/26 12:24:57;;;;;;;66.13;30.38;;;;;;;3.83;79.61;98834.66;20892997;28;20237;-69
2021/11/26 12:35:08;;;;;;;64.85;29.50;;;;;;;3.95;79.35;98835.38;20892176;28;20047;-67
2021/11/26 12:45:13;;;;;;;60.83;27.92;;;;;;;3.78;79.33;98805.38;20891724;28;20041;-68
2021/11/26 12:55:16;;;;;;;60.08;27.65;;;;;;;3.96;78.59;98785.28;20908378;28;20440;-68
2021/11/26 13:05:20;;;;;;;52.97;24.80;;;;;;;3.91;79.45;98768.97;20906894;28;20484;-68
2021/11/26 13:15:25;;;;;;;56.53;25.73;;;;;;;3.98;78.53;98750.75;20906408;28;20079;-68
2021/11/26 13:25:28;;;;;;;;;;;;;;;3.95;79.21;98724.03;20907327;28;20057;-69
2021/11/26 13:35:30;;;;;;;53.88;24.95;;;;;;;3.91;79.08;98712.00;20904041;28;19921;-68
2021/11/26 13:45:37;;;;;;;54.70;24.42;;;;;;;3.96;77.81;98692.91;20901328;28;20099;-68
2021/11/26 13:55:39;;;;;;;54.47;25.17;;;;;;;4.02;79.56;98686.78;20905406;28;20053;-69
2021/11/26 14:05:42;;;;;;;52.15;25.58;;;;;;;3.95;81.06;98670.50;20900100;28;20080;-69
2021/11/26 14:15:44;;;;;;;58.58;25.60;;;;;;;3.92;81.08;98665.38;20901287;28;20053;-68
2021/11/26 14:25:46;;;;;;;53.38;24.45;;;;;;;3.89;83.66;98656.81;20901923;28;20052;-69
2021/11/26 14:35:49;;;;;;;61.72;25.75;;;;;;;3.72;85.26;98650.16;20900207;28;20052;-71
2021/11/26 14:46:06;;;;;;;58.35;25.65;;;;;;;3.58;87.31;98641.78;20900905;28;20118;-70
2021/11/26 14:56:12;;;;;;;67.43;28.70;;;;;;;3.34;88.97;98630.91;20900628;28;20060;-70
2021/11/26 15:06:13;;;;;;;56.28;25.52;;;;;;;3.21;89.16;98615.59;20895739;28;20114;-73
2021/11/26 15:16:15;;;;;;;57.95;25.65;;;;;;;3.20;89.57;98599.22;20897666;28;20049;-71
2021/11/26 15:26:17;;;;;;;57.45;26.30;;;;;;;3.12;89.58;98579.56;20897091;28;20136;-75
2021/11/26 15:36:19;;;;;;;60.85;27.35;;;;;;;3.05;90.02;98578.78;20895549;28;20049;-71
2021/11/26 15:46:21;;;;;;;65.45;28.08;;;;;;;3.03;90.09;98559.88;20895187;28;20045;-71
2021/11/26 15:56:24;;;;;;;59.35;26.02;;;;;;;3.04;90.72;98540.88;20894346;28;20098;-70
2021/11/26 16:06:28;;;;;;;63.03;26.13;;;;;;;3.07;90.69;98522.75;20892413;28;20044;-71
2021/11/26 16:16:30;;;;;;;65.88;27.25;;;;;;;3.16;90.68;98517.41;20892976;28;20078;-71
2021/11/26 16:26:32;;;;;;;66.10;26.70;;;;;;;3.18;90.02;98502.72;20895659;28;20107;-70
2021/11/26 16:36:35;;;;;;;58.92;23.92;;;;;;;3.15;90.62;98479.50;20890715;28;20048;-69
2021/11/26 16:46:43;;;;;;;66.18;27.38;;;;;;;3.10;90.14;98476.13;20893230;28;20053;-70
2021/11/26 16:56:45;;;;;;;55.80;23.02;;;;;;;2.98;90.00;98456.53;20891816;28;20168;-70
2021/11/26 17:06:48;;;;;;;57.88;23.73;;;;;;;2.96;90.33;98445.34;20889981;28;20061;-71
2021/11/26 17:16:49;;;;;;;54.70;23.30;;;;;;;2.86;89.38;98432.59;20891907;28;20060;-71
2021/11/26 17:26:58;;;;;;;49.03;21.55;;;;;;;2.83;89.70;98410.25;20891507;28;20395;-70
2021/11/26 17:36:59;;;;;;;46.90;20.38;;;;;;;2.75;89.69;98388.84;20894443;28;20052;-70
2021/11/26 17:47:06;;;;;;;47.75;21.05;;;;;;;2.72;89.61;98379.41;20904456;28;20059;-70
2021/11/26 17:57:08;;;;;;;54.25;23.60;;;;;;;2.65;89.04;98354.56;20904581;28;20059;-70
2021/11/26 18:07:12;;;;;;;49.42;21.98;;;;;;;2.65;88.22;98333.03;20886284;28;20076;-69
2021/11/26 18:17:14;;;;;;;43.77;18.57;;;;;;;2.59;88.13;98331.44;20838811;28;20487;-70
2021/11/26 18:27:19;;;;;;;43.55;17.20;;;;;;;2.54;88.53;98312.56;20818654;28;20337;-70
2021/11/26 18:37:22;;;;;;;;;;;;;;;2.37;87.67;98291.31;20820504;28;20072;-70
2021/11/26 18:47:24;;;;;;;38.40;16.05;;;;;;;2.28;87.84;98275.09;20817826;28;20370;-71
2021/11/26 18:57:25;;;;;;;45.45;18.75;;;;;;;2.12;87.97;98245.25;20817483;28;20079;-69
2021/11/26 19:07:27;;;;;;;35.80;15.85;;;;;;;2.10;87.57;98228.94;20815159;28;20132;-70
2021/11/26 19:17:28;;;;;;;34.05;15.15;;;;;;;2.11;87.69;98210.00;20815953;28;20053;-69
2021/11/26 19:27:31;;;;;;;33.33;13.63;;;;;;;2.11;87.52;98180.72;20813542;28;20053;-70
2021/11/26 19:37:35;;;;;;;32.72;14.43;;;;;;;2.27;86.78;98148.63;20813977;28;20049;-70
2021/11/26 19:47:38;;;;;;;28.73;13.20;;;;;;;2.41;86.22;98127.69;20813278;28;20084;-69
2021/11/26 19:57:40;;;;;;;24.95;12.05;;;;;;;2.55;86.01;98112.78;20810259;28;20127;-70
2021/11/26 20:07:42;;;;;;;24.05;11.13;;;;;;;2.68;85.28;98084.94;20810843;28;20140;-69
2021/11/26 20:17:43;;;;;;;22.83;10.95;;;;;;;2.78;84.33;98083.88;20877713;28;20122;-70
2021/11/26 20:27:46;;;;;;;21.67;9.95;;;;;;;2.87;84.45;98068.16;20891280;28;20122;-69
2021/11/26 20:37:48;;;;;;;22.08;9.43;;;;;;;3.01;82.65;98054.91;20892227;28;20041;-70
2021/11/26 20:47:50;;;;;;;19.10;8.80;;;;;;;3.13;81.50;98043.47;20891090;28;20413;-70
2021/11/26 20:57:52;;;;;;;18.77;8.80;;;;;;;3.12;81.69;98027.09;20891902;28;20048;-69
2021/11/26 21:07:54;;;;;;;20.15;9.60;;;;;;;3.13;81.45;98008.13;20892169;28;20103;-69
2021/11/26 21:17:56;;;;;;;25.42;10.40;;;;;;;3.04;81.92;97998.00;20838061;28;20058;-68
2021/11/26 21:27:58;;;;;;;22.13;10.02;;;;;;;3.22;80.22;97971.69;20825712;28;20044;-68
2021/11/26 21:38:00;;;;;;;20.60;8.73;;;;;;;3.08;80.40;97947.91;20869884;28;20217;-68
2021/11/26 21:48:02;;;;;;;17.40;8.10;;;;;;;3.17;80.52;97923.56;20827982;28;20103;-69
2021/11/26 21:58:04;;;;;;;17.25;7.93;;;;;;;3.24;81.57;97910.44;20820641;28;20069;-68
2021/11/26 22:08:06;;;;;;;21.77;8.88;;;;;;;3.36;80.96;97900.66;20820238;28;20049;-69
2021/11/26 22:18:08;;;;;;;18.27;7.88;;;;;;;3.42;81.13;97884.97;20888877;28;20052;-72
2021/11/26 22:28:10;;;;;;;13.80;6.68;;;;;;;3.41;81.30;97872.94;20900507;28;20049;-69
2021/11/26 22:38:14;;;;;;;15.35;6.80;;;;;;;3.42;80.69;97847.03;20898569;28;20478;-70
2021/11/26 22:48:16;;;;;;;11.75;5.30;;;;;;;3.47;80.46;97836.53;20899658;28;20049;-71
2021/11/26 22:58:17;;;;;;;14.85;6.22;;;;;;;3.51;80.69;97830.41;20898632;28;20055;-70
2021/11/26 23:08:19;;;;;;;10.30;4.65;;;;;;;3.56;79.75;97800.91;20900115;28;20056;-68
2021/11/26 23:18:22;;;;;;;7.90;3.88;;;;;;;3.41;79.39;97796.19;20898827;28;20048;-69
2021/11/26 23:28:27;;;;;;;9.10;3.60;;;;;;;3.66;78.48;97785.97;20899886;28;20102;-68
2021/11/26 23:38:29;;;;;;;7.22;3.42;;;;;;;3.68;79.81;97786.75;20901742;28;20425;-68
2021/11/26 23:48:31;;;;;;;7.13;2.60;;;;;;;3.60;80.06;97786.16;20902303;28;20095;-69
2021/11/26 23:58:33;;;;;;;6.60;2.38;;;;;;;3.63;79.94;97775.69;20902193;28;20414;-68
